Bangor (BGR/KBGR)

Map

Destinations

Information

Location
Bangor, Maine
Local Time
18:41 / 6:41 pm
GMT Time
22:41 / 10:41 pm
Gates
Unassigned
No FAA reported delays
METAR KBGR 242153Z 00000KT 5SM -RA OVC080 15/13 A3004 RMK AO2 SLP173 P0003 T01500133
TAF KBGR 241744Z 2418/2518 13007KT P6SM OVC120 FM241900 13007KT P6SM VCSH OVC060 FM242200 09005KT 6SM -RA OVC040 FM250200 04004KT P6SM VCSH OVC035 FM250800 03005KT P6SM VCSH OVC025 FM251000 02007KT P6SM OVC025 FM251500 02006KT P6SM OVC035